Time;durP1;ratioP1;P1;durP2;ratioP2;P2;SDS_P1;SDS_P2;PMS_P1;PMS_P2;Temp;Humidity;BMP_temperature;BMP_pressure;BME280_temperature;BME280_humidity;BME280_pressure;Samples;Min_cycle;Max_cycle;Signal;HPM_P1;HPM_P2
2021/06/16 00:00:18;;;;;;;6.40;2.70;;;;;;;18.87;56.45;99750.94;5030372;28;20112;-67
2021/06/16 00:02:43;;;;;;;10.32;3.58;;;;;;;18.69;57.31;99740.94;5029754;28;20029;-68
2021/06/16 00:05:12;;;;;;;7.05;3.08;;;;;;;18.56;58.35;99738.44;5029431;28;20040;-67
2021/06/16 00:07:38;;;;;;;6.95;3.85;;;;;;;18.53;58.65;99741.34;5028996;28;20084;-67
2021/06/16 00:10:05;;;;;;;7.03;2.90;;;;;;;18.49;58.69;99737.25;5034089;28;20484;-67
2021/06/16 00:12:30;;;;;;;7.22;3.05;;;;;;;18.39;59.19;99738.00;5033643;28;20034;-67
2021/06/16 00:14:56;;;;;;;8.35;3.25;;;;;;;18.24;59.82;99728.59;5030500;28;20107;-67
2021/06/16 00:17:21;;;;;;;6.00;3.03;;;;;;;18.18;60.24;99729.94;5029172;28;20036;-67
2021/06/16 00:19:46;;;;;;;6.15;3.13;;;;;;;18.13;59.93;99723.28;5029499;28;20397;-67
2021/06/16 00:22:12;;;;;;;6.53;3.28;;;;;;;18.10;59.97;99721.72;5029792;28;20041;-67
2021/06/16 00:24:38;;;;;;;5.30;2.83;;;;;;;18.09;60.29;99722.69;5029344;28;20037;-67
2021/06/16 00:27:04;;;;;;;5.10;3.08;;;;;;;18.08;59.89;99723.66;5029195;28;20539;-67
2021/06/16 00:29:29;;;;;;;5.32;2.75;;;;;;;18.06;60.47;99719.41;5029371;28;20505;-67
2021/06/16 00:31:55;;;;;;;7.60;2.80;;;;;;;18.05;60.33;99720.41;5030058;28;20091;-67
2021/06/16 00:34:20;;;;;;;3.83;2.28;;;;;;;18.09;60.05;99713.81;5029239;28;20493;-67
2021/06/16 00:36:46;;;;;;;7.50;2.97;;;;;;;18.14;59.60;99717.84;5028680;28;20041;-66
2021/06/16 00:39:12;;;;;;;5.05;2.95;;;;;;;18.15;59.44;99714.19;5029062;28;20029;-66
2021/06/16 00:41:38;;;;;;;5.70;2.70;;;;;;;18.14;59.59;99704.50;5029375;28;20034;-67
2021/06/16 00:44:05;;;;;;;5.43;2.95;;;;;;;18.16;59.96;99705.22;5029154;28;20069;-67
2021/06/16 00:46:31;;;;;;;7.93;2.85;;;;;;;18.16;59.66;99709.69;5028828;28;20033;-67
2021/06/16 00:48:56;;;;;;;5.53;3.38;;;;;;;18.18;59.88;99711.25;5029313;28;20049;-66
2021/06/16 00:51:22;;;;;;;6.55;2.88;;;;;;;18.18;60.13;99708.59;5029267;28;20052;-66
2021/06/16 00:53:47;;;;;;;6.35;3.28;;;;;;;18.18;60.38;99710.41;5028963;28;20523;-66
2021/06/16 00:56:12;;;;;;;5.53;3.10;;;;;;;18.11;60.61;99704.72;5028727;28;20029;-67
2021/06/16 00:58:38;;;;;;;5.68;2.70;;;;;;;18.11;60.37;99704.72;5028528;28;20034;-66
2021/06/16 01:01:13;;;;;;;7.68;3.45;;;;;;;18.11;60.08;99710.06;5004818;28;20041;-66
2021/06/16 01:03:41;;;;;;;4.90;2.60;;;;;;;18.10;60.50;99704.88;5029150;28;20436;-67
2021/06/16 01:06:17;;;;;;;4.80;2.83;;;;;;;18.08;60.16;99699.66;5028587;28;20053;-66
2021/06/16 01:08:55;;;;;;;12.75;3.10;;;;;;;18.03;60.36;99702.69;5029184;28;20091;-66
2021/06/16 01:11:23;;;;;;;4.10;2.50;;;;;;;18.04;60.31;99698.22;5029191;28;20045;-66
2021/06/16 01:13:52;;;;;;;7.05;2.60;;;;;;;17.98;60.93;99691.56;5028571;28;20072;-66
2021/06/16 01:16:38;;;;;;;6.45;2.67;;;;;;;18.02;60.93;99700.16;5028963;28;20100;-66
2021/06/16 01:19:11;;;;;;;;;;;;;;;18.03;61.01;99699.19;5029489;28;20052;-66
2021/06/16 01:21:40;;;;;;;9.68;3.25;;;;;;;18.02;60.98;99689.50;5028746;28;19945;-66
2021/06/16 01:24:08;;;;;;;9.63;4.95;;;;;;;18.03;61.01;99689.34;5028716;28;20057;-67
2021/06/16 01:26:35;;;;;;;8.10;4.93;;;;;;;17.99;61.32;99690.59;5028426;28;20033;-66
2021/06/16 01:29:10;;;;;;;9.52;4.15;;;;;;;18.03;61.32;99691.19;5028850;28;20392;-66
2021/06/16 01:31:36;;;;;;;7.82;2.67;;;;;;;18.03;61.15;99685.84;5028846;28;20056;-67
2021/06/16 01:34:03;;;;;;;8.88;3.47;;;;;;;17.99;61.73;99685.25;5028850;28;20061;-66
2021/06/16 01:36:29;;;;;;;9.80;3.40;;;;;;;17.95;61.84;99680.28;5028133;28;20396;-66
2021/06/16 01:38:55;;;;;;;13.05;3.75;;;;;;;17.93;62.18;99679.56;5029445;28;20057;-67
2021/06/16 01:41:22;;;;;;;9.13;3.50;;;;;;;17.95;61.77;99689.13;5032678;28;20128;-66
2021/06/16 01:43:51;;;;;;;5.53;2.95;;;;;;;17.97;61.79;99684.53;5032546;28;20037;-67
2021/06/16 01:46:17;;;;;;;6.03;3.15;;;;;;;17.96;61.91;99677.47;5032019;28;20037;-67
2021/06/16 01:48:45;;;;;;;5.70;3.17;;;;;;;17.95;62.24;99673.13;5032180;28;20389;-67
2021/06/16 01:51:12;;;;;;;4.57;2.90;;;;;;;17.87;62.74;99672.06;5032252;28;20033;-66
2021/06/16 01:53:39;;;;;;;10.20;3.10;;;;;;;17.84;62.96;99678.47;5032037;28;20061;-67
2021/06/16 01:56:06;;;;;;;4.72;2.42;;;;;;;17.82;62.94;99672.44;5031946;28;20527;-67
2021/06/16 01:58:32;;;;;;;7.00;3.88;;;;;;;17.79;63.51;99665.50;5031614;28;20120;-67
2021/06/16 02:00:57;;;;;;;8.77;3.40;;;;;;;17.80;63.13;99667.22;5031890;28;20121;-67
2021/06/16 02:03:23;;;;;;;7.90;3.70;;;;;;;17.76;63.32;99660.41;5031775;28;20438;-67
2021/06/16 02:05:48;;;;;;;5.93;2.95;;;;;;;17.71;63.21;99673.28;5031682;28;20068;-67
2021/06/16 02:08:19;;;;;;;5.15;2.80;;;;;;;17.70;63.74;99671.59;5031999;28;20025;-67
2021/06/16 02:10:47;;;;;;;9.30;3.22;;;;;;;17.70;63.40;99668.91;5030468;28;20037;-66
2021/06/16 02:13:15;;;;;;;7.38;3.78;;;;;;;17.67;63.90;99674.50;5031968;28;20049;-67
2021/06/16 02:15:56;;;;;;;13.50;4.60;;;;;;;17.63;63.88;99667.72;5031202;28;20436;-67
2021/06/16 02:18:33;;;;;;;6.95;2.97;;;;;;;17.61;64.12;99667.00;5031960;28;20044;-67
2021/06/16 02:20:59;;;;;;;14.02;3.90;;;;;;;17.56;64.46;99662.03;5031705;28;20065;-67
2021/06/16 02:23:25;;;;;;;6.78;3.45;;;;;;;17.52;64.62;99660.59;5031861;28;20134;-67
2021/06/16 02:25:51;;;;;;;7.22;3.85;;;;;;;17.49;64.88;99660.81;5031835;28;20112;-66
2021/06/16 02:28:17;;;;;;;5.53;3.03;;;;;;;17.48;65.01;99656.47;5031639;28;20106;-67
2021/06/16 02:30:42;;;;;;;9.02;3.53;;;;;;;17.47;65.16;99654.75;5031662;28;20130;-68
2021/06/16 02:33:07;;;;;;;8.65;3.65;;;;;;;17.48;65.09;99642.31;5031478;28;20034;-67
2021/06/16 02:35:33;;;;;;;10.13;2.60;;;;;;;17.52;64.89;99641.94;5029928;28;20509;-67
2021/06/16 02:38:04;;;;;;;8.43;3.10;;;;;;;17.50;65.46;99646.53;5031313;28;20029;-67
2021/06/16 02:40:31;;;;;;;6.60;3.80;;;;;;;17.46;65.23;99641.56;5031686;28;20025;-67
2021/06/16 02:42:57;;;;;;;6.68;3.42;;;;;;;17.42;65.49;99634.78;5031366;28;20052;-67
2021/06/16 02:45:23;;;;;;;6.80;3.83;;;;;;;17.39;65.90;99634.06;5031849;28;20121;-67
2021/06/16 02:47:50;;;;;;;5.97;3.45;;;;;;;17.31;65.64;99636.50;5033090;28;20489;-67
2021/06/16 02:50:23;;;;;;;10.55;3.63;;;;;;;17.26;65.79;99625.34;5034911;28;20040;-67
2021/06/16 02:52:49;;;;;;;10.07;3.47;;;;;;;17.27;65.58;99621.72;5036268;28;20400;-67
2021/06/16 02:55:15;;;;;;;6.13;3.47;;;;;;;17.31;65.98;99623.16;5031594;28;20227;-67
2021/06/16 02:57:43;;;;;;;5.40;2.60;;;;;;;17.29;65.81;99618.94;5030740;28;20112;-67
2021/06/16 03:00:11;;;;;;;8.73;3.67;;;;;;;17.30;65.64;99615.28;5031909;28;20030;-67
2021/06/16 03:02:38;;;;;;;11.85;3.50;;;;;;;17.30;65.65;99617.94;5031206;28;20079;-67
2021/06/16 03:05:06;;;;;;;8.10;3.35;;;;;;;17.27;65.83;99610.22;5030855;28;20029;-67
2021/06/16 03:07:34;;;;;;;9.50;3.42;;;;;;;17.25;65.70;99612.97;5030741;28;20121;-67
2021/06/16 03:09:59;;;;;;;11.45;3.47;;;;;;;17.26;65.55;99611.19;5030736;28;20519;-67
2021/06/16 03:12:26;;;;;;;5.57;3.17;;;;;;;17.27;65.15;99615.53;5030729;28;20041;-67
2021/06/16 03:14:52;;;;;;;7.70;3.22;;;;;;;17.25;64.79;99615.66;5031050;28;20059;-67
2021/06/16 03:17:18;;;;;;;8.27;4.32;;;;;;;17.24;65.36;99613.13;5030343;28;20033;-67
2021/06/16 03:19:45;;;;;;;7.75;3.72;;;;;;;17.20;65.66;99611.66;5030643;28;20033;-67
2021/06/16 03:22:11;;;;;;;8.25;4.20;;;;;;;17.15;65.89;99612.91;5030278;28;20034;-67
2021/06/16 03:24:39;;;;;;;11.30;3.47;;;;;;;17.14;65.94;99607.69;5030261;28;20033;-67
2021/06/16 03:27:05;;;;;;;12.63;3.90;;;;;;;17.13;66.05;99605.97;5030287;28;20038;-67
2021/06/16 03:29:33;;;;;;;11.98;4.10;;;;;;;17.11;65.72;99602.59;5030547;28;20554;-66
2021/06/16 03:32:00;;;;;;;9.57;4.57;;;;;;;17.10;65.90;99596.41;5030332;28;20037;-67
2021/06/16 03:34:26;;;;;;;11.32;3.38;;;;;;;17.10;65.81;99606.22;5030266;28;20034;-67
2021/06/16 03:36:52;;;;;;;6.60;3.15;;;;;;;17.13;65.74;99597.97;5030718;28;20044;-67
2021/06/16 03:39:18;;;;;;;6.60;3.05;;;;;;;17.11;65.67;99594.63;5030348;28;20022;-67
2021/06/16 03:41:45;;;;;;;10.85;4.15;;;;;;;17.07;65.64;99601.97;5030816;28;20091;-67
2021/06/16 03:44:12;;;;;;;8.10;3.85;;;;;;;17.10;65.24;99595.56;5030395;28;20033;-67
2021/06/16 03:46:39;;;;;;;9.55;3.75;;;;;;;17.11;64.86;99597.28;5029654;28;20086;-67
2021/06/16 03:49:09;;;;;;;11.45;4.32;;;;;;;17.10;64.94;99596.41;5030092;28;20502;-67
2021/06/16 03:51:35;;;;;;;12.50;4.68;;;;;;;17.06;65.96;99594.97;5030126;28;20112;-67
2021/06/16 03:54:03;;;;;;;9.02;4.72;;;;;;;17.06;65.70;99588.81;5029553;28;20041;-67
2021/06/16 03:56:28;;;;;;;12.02;4.65;;;;;;;17.07;65.30;99586.00;5029668;28;20033;-67
2021/06/16 03:58:54;;;;;;;9.13;4.43;;;;;;;17.07;65.64;99585.16;5029894;28;20037;-67
2021/06/16 04:01:21;;;;;;;10.73;4.55;;;;;;;17.05;65.19;99590.59;5028424;28;20029;-67
2021/06/16 04:03:47;;;;;;;12.93;4.88;;;;;;;17.07;65.51;99586.00;5029635;28;20046;-67
2021/06/16 04:06:14;;;;;;;12.65;4.68;;;;;;;17.10;65.28;99582.25;5029534;28;20030;-67
2021/06/16 04:08:42;;;;;;;12.65;4.55;;;;;;;17.05;65.34;99577.28;5029394;28;20037;-67
2021/06/16 04:11:07;;;;;;;12.23;4.38;;;;;;;17.04;65.95;99567.59;5028329;28;20120;-67
2021/06/16 04:13:33;;;;;;;9.88;4.90;;;;;;;17.02;66.01;99576.69;5029742;28;20120;-67
2021/06/16 04:15:58;;;;;;;20.00;5.07;;;;;;;17.03;65.87;99576.59;5029326;28;20076;-67
2021/06/16 04:18:24;;;;;;;8.80;3.75;;;;;;;17.05;65.95;99563.97;5029873;28;20033;-67
2021/06/16 04:20:49;;;;;;;15.20;4.28;;;;;;;17.07;65.89;99571.84;5030168;28;20103;-67
2021/06/16 04:23:15;;;;;;;13.00;4.38;;;;;;;17.10;65.47;99558.28;5027374;28;20034;-67
2021/06/16 04:25:41;;;;;;;11.45;4.45;;;;;;;17.14;65.10;99562.41;5029055;28;20490;-67
2021/06/16 04:28:06;;;;;;;8.30;3.90;;;;;;;17.15;64.92;99564.06;5028930;28;20036;-68
2021/06/16 04:30:31;;;;;;;8.98;4.10;;;;;;;17.22;65.16;99569.78;5030040;28;20029;-68
2021/06/16 04:32:57;;;;;;;7.75;3.95;;;;;;;17.23;65.10;99566.13;5030188;28;20033;-67
2021/06/16 04:35:22;;;;;;;7.55;3.85;;;;;;;17.25;64.96;99562.38;5030537;28;20487;-67
2021/06/16 04:37:48;;;;;;;9.45;3.85;;;;;;;17.22;65.64;99556.44;5030541;28;20045;-67
2021/06/16 04:40:14;;;;;;;14.38;4.35;;;;;;;17.19;66.00;99551.38;5031104;28;20103;-67
2021/06/16 04:42:40;;;;;;;9.73;4.88;;;;;;;17.20;65.81;99550.38;5030852;28;20564;-66
2021/06/16 04:45:06;;;;;;;13.68;4.72;;;;;;;17.23;66.04;99548.34;5030965;28;20374;-67
2021/06/16 04:47:32;;;;;;;8.63;4.22;;;;;;;17.27;65.71;99546.25;5030961;28;20060;-67
2021/06/16 04:49:58;;;;;;;10.80;4.00;;;;;;;17.29;65.57;99547.00;5030819;28;20053;-67
2021/06/16 04:52:24;;;;;;;13.73;5.75;;;;;;;17.39;65.74;99540.78;5031476;28;20103;-66
2021/06/16 04:54:49;;;;;;;10.13;4.55;;;;;;;17.46;65.32;99538.47;5030631;28;20647;-67
2021/06/16 04:57:15;;;;;;;10.57;4.57;;;;;;;17.49;65.35;99538.22;5030485;28;20109;-66
2021/06/16 04:59:40;;;;;;;8.80;4.10;;;;;;;17.57;64.99;99542.91;5030510;28;20044;-66
2021/06/16 05:02:05;;;;;;;12.20;4.78;;;;;;;17.68;64.46;99539.38;5030675;28;20503;-67
2021/06/16 05:04:31;;;;;;;11.98;4.50;;;;;;;17.80;64.15;99535.72;5029508;28;20115;-66
2021/06/16 05:06:56;;;;;;;15.65;4.00;;;;;;;17.97;62.78;99534.31;5027633;28;20049;-67
2021/06/16 05:09:22;;;;;;;11.00;4.05;;;;;;;18.16;62.88;99526.47;5030547;28;20389;-68
2021/06/16 05:11:47;;;;;;;6.85;3.78;;;;;;;18.36;62.21;99526.53;5030434;28;20033;-67
2021/06/16 05:14:14;;;;;;;11.25;4.65;;;;;;;18.56;61.79;99533.72;5031564;28;20037;-66
2021/06/16 05:16:39;;;;;;;9.25;4.47;;;;;;;18.76;60.61;99525.81;5031977;28;20037;-67
2021/06/16 05:19:11;;;;;;;8.13;4.05;;;;;;;18.96;60.42;99532.06;5034620;28;20492;-66
2021/06/16 05:21:36;;;;;;;10.63;4.65;;;;;;;19.08;59.66;99528.31;5034356;28;20056;-67
2021/06/16 05:24:01;;;;;;;9.25;4.90;;;;;;;19.19;59.23;99524.69;5033669;28;20484;-66
2021/06/16 05:26:27;;;;;;;14.98;6.88;;;;;;;19.35;58.65;99521.50;5032186;28;20037;-67
2021/06/16 05:28:52;;;;;;;12.23;4.40;;;;;;;19.53;58.20;99520.66;5034960;28;20026;-67
2021/06/16 05:31:17;;;;;;;8.32;5.30;;;;;;;19.72;57.70;99509.16;5034602;28;20061;-67
2021/06/16 05:33:43;;;;;;;15.50;4.93;;;;;;;19.94;56.84;99516.06;5033919;28;20120;-67
2021/06/16 05:36:08;;;;;;;8.18;4.28;;;;;;;20.12;56.18;99510.81;5035256;28;20037;-66
2021/06/16 05:38:35;;;;;;;8.73;5.18;;;;;;;20.42;55.56;99513.41;5034252;28;20448;-67
2021/06/16 05:41:01;;;;;;;13.35;5.03;;;;;;;20.67;54.43;99511.94;5033385;28;20378;-67
2021/06/16 05:43:26;;;;;;;17.75;4.85;;;;;;;21.00;53.76;99510.56;5032852;28;20048;-68
2021/06/16 05:45:52;;;;;;;9.85;4.38;;;;;;;21.26;53.10;99505.28;5033657;28;20041;-68
2021/06/16 05:48:17;;;;;;;9.27;5.13;;;;;;;21.47;52.05;99507.75;5032920;28;20084;-66
2021/06/16 05:50:42;;;;;;;11.52;5.22;;;;;;;21.67;51.68;99502.22;5032138;28;20041;-66
2021/06/16 05:53:11;;;;;;;8.18;5.43;;;;;;;21.93;50.89;99503.13;5033133;28;20041;-67
2021/06/16 05:55:37;;;;;;;8.52;6.03;;;;;;;22.23;49.91;99501.03;5033016;28;20451;-68
2021/06/16 05:58:03;;;;;;;8.13;4.93;;;;;;;22.58;49.07;99502.75;5033189;28;20029;-66
2021/06/16 06:00:29;;;;;;;13.55;5.80;;;;;;;22.88;48.35;99498.69;5033057;28;20037;-68
2021/06/16 06:02:54;;;;;;;10.60;5.78;;;;;;;23.01;48.19;99494.72;5032012;28;20041;-66
2021/06/16 06:05:19;;;;;;;16.73;5.75;;;;;;;23.16;47.46;99501.19;5032243;28;20045;-66
2021/06/16 06:07:45;;;;;;;10.93;6.25;;;;;;;23.33;47.00;99496.69;5032882;28;20523;-68
2021/06/16 06:10:10;;;;;;;13.18;6.10;;;;;;;23.54;47.01;99496.22;5033138;28;20036;-67
2021/06/16 06:12:36;;;;;;;11.23;5.28;;;;;;;23.84;46.69;99496.63;5032812;28;20028;-69
2021/06/16 06:15:01;;;;;;;8.55;6.22;;;;;;;23.86;46.18;99499.97;5033400;28;20099;-67
2021/06/16 06:17:27;;;;;;;12.07;6.60;;;;;;;23.88;46.27;99498.81;5033097;28;20030;-67
2021/06/16 06:19:52;;;;;;;8.98;5.65;;;;;;;24.04;45.54;99495.25;5033349;28;20065;-68
2021/06/16 06:22:17;;;;;;;17.90;7.05;;;;;;;24.08;45.80;99493.06;5032012;28;20045;-67
2021/06/16 06:24:43;;;;;;;10.45;6.72;;;;;;;24.12;46.07;99492.56;5030015;28;20123;-67
2021/06/16 06:27:08;;;;;;;14.65;6.82;;;;;;;24.28;45.56;99488.16;5030485;28;20083;-66
2021/06/16 06:29:33;;;;;;;14.05;7.20;;;;;;;24.32;45.65;99481.44;5031734;28;20033;-67
2021/06/16 06:31:59;;;;;;;11.07;6.57;;;;;;;24.39;45.39;99482.41;5030558;28;20508;-67
2021/06/16 06:34:24;;;;;;;14.93;6.57;;;;;;;24.29;45.91;99479.06;5032956;28;20049;-67
2021/06/16 06:36:50;;;;;;;11.30;5.25;;;;;;;24.33;46.03;99475.84;5032430;28;20113;-68
2021/06/16 06:39:15;;;;;;;10.25;6.50;;;;;;;24.60;45.33;99480.03;5032386;28;20509;-67
2021/06/16 06:41:41;;;;;;;12.23;6.70;;;;;;;24.81;45.36;99474.06;5035002;28;20033;-68
2021/06/16 06:44:07;;;;;;;11.63;6.07;;;;;;;24.97;44.38;99475.00;5032599;28;20113;-67
2021/06/16 06:46:32;;;;;;;12.38;5.97;;;;;;;25.10;44.45;99477.94;5033498;28;20543;-68
2021/06/16 06:48:58;;;;;;;13.40;6.72;;;;;;;25.20;44.31;99473.22;5031698;28;20037;-67
2021/06/16 06:51:23;;;;;;;10.63;6.50;;;;;;;25.31;44.30;99468.44;5032110;28;20026;-67
2021/06/16 06:53:48;;;;;;;8.98;5.40;;;;;;;25.58;43.86;99467.91;5033168;28;20080;-68
2021/06/16 06:56:14;;;;;;;11.20;6.05;;;;;;;25.74;43.44;99458.81;5035105;28;20043;-68
2021/06/16 06:58:39;;;;;;;18.58;6.43;;;;;;;25.81;43.66;99458.94;5035167;28;20388;-67
2021/06/16 07:01:05;;;;;;;9.35;5.85;;;;;;;25.68;43.65;99454.16;5034335;28;20039;-68
2021/06/16 07:03:34;;;;;;;9.38;6.13;;;;;;;25.58;44.31;99450.88;5034641;28;20038;-66
2021/06/16 07:05:59;;;;;;;10.10;6.00;;;;;;;25.42;44.87;99449.13;5031854;28;20037;-67
2021/06/16 07:08:25;;;;;;;9.68;6.47;;;;;;;25.29;45.23;99449.72;5031628;28;20041;-67
2021/06/16 07:10:50;;;;;;;9.05;6.30;;;;;;;25.38;45.02;99450.50;5031067;28;20036;-67
2021/06/16 07:13:16;;;;;;;23.05;7.97;;;;;;;25.70;44.54;99444.03;5031041;28;20520;-65
2021/06/16 07:15:41;;;;;;;10.32;6.35;;;;;;;25.86;44.12;99443.06;5030072;28;20796;-66
2021/06/16 07:18:06;;;;;;;11.02;5.57;;;;;;;26.06;43.53;99435.25;5031130;28;20045;-66
2021/06/16 07:20:32;;;;;;;15.23;6.68;;;;;;;26.09;43.85;99438.47;5031070;28;20025;-67
2021/06/16 07:22:57;;;;;;;18.70;6.03;;;;;;;26.09;43.58;99434.91;5031285;28;20112;-69
2021/06/16 07:25:23;;;;;;;10.63;5.55;;;;;;;26.19;43.57;99438.19;5023858;28;20109;-69
2021/06/16 07:27:49;;;;;;;15.35;6.22;;;;;;;26.47;43.35;99429.44;5030303;28;20037;-70
2021/06/16 07:30:16;;;;;;;11.73;5.60;;;;;;;26.93;42.47;99438.16;5029630;28;20030;-69
2021/06/16 07:32:42;;;;;;;9.18;5.47;;;;;;;27.27;41.75;99433.13;5030108;28;20029;-69
2021/06/16 07:35:08;;;;;;;8.18;5.57;;;;;;;27.68;41.08;99427.09;5030090;28;20044;-70
2021/06/16 07:37:35;;;;;;;8.73;5.32;;;;;;;28.30;39.54;99428.19;5025159;28;20041;-69
2021/06/16 07:40:02;;;;;;;13.73;6.65;;;;;;;28.42;38.90;99424.72;5017450;28;20049;-70
2021/06/16 07:42:27;;;;;;;7.55;5.18;;;;;;;29.00;38.33;99420.84;5022628;28;20146;-71
2021/06/16 07:44:53;;;;;;;12.98;5.90;;;;;;;29.53;37.37;99424.50;5018551;28;20807;-71
2021/06/16 07:47:18;;;;;;;14.93;6.72;;;;;;;29.86;36.86;99420.19;5021132;28;20689;-69
2021/06/16 07:49:43;;;;;;;10.48;5.57;;;;;;;29.72;36.85;99416.63;5024187;28;20041;-71
2021/06/16 07:52:09;;;;;;;14.48;6.80;;;;;;;29.67;36.92;99419.94;5010061;28;20125;-71
2021/06/16 07:54:35;;;;;;;8.07;5.40;;;;;;;29.83;36.99;99416.00;5019652;28;20065;-71
2021/06/16 07:57:00;;;;;;;12.20;7.28;;;;;;;29.90;36.43;99408.66;5023538;28;20044;-69
2021/06/16 07:59:25;;;;;;;9.15;5.68;;;;;;;29.84;36.20;99412.22;5023090;28;20413;-70
2021/06/16 08:01:51;;;;;;;8.18;5.63;;;;;;;30.06;36.57;99415.53;5006559;28;20077;-69
2021/06/16 08:04:19;;;;;;;8.45;5.55;;;;;;;29.95;36.48;99414.31;5019580;28;20044;-70
2021/06/16 08:06:45;;;;;;;11.90;6.28;;;;;;;29.79;36.93;99408.47;5024485;28;20030;-69
2021/06/16 08:09:10;;;;;;;13.45;6.40;;;;;;;29.70;37.13;99405.94;5023146;28;20044;-71
2021/06/16 08:11:35;;;;;;;13.35;6.57;;;;;;;29.67;37.72;99414.53;5024445;28;20111;-70
2021/06/16 08:14:01;;;;;;;13.05;8.05;;;;;;;29.64;37.38;99414.91;5024066;28;20048;-69
2021/06/16 08:16:26;;;;;;;12.82;6.82;;;;;;;29.69;37.41;99404.28;5021288;28;20041;-71
2021/06/16 08:18:52;;;;;;;12.40;6.43;;;;;;;30.05;36.71;99411.16;5023677;28;20033;-73
2021/06/16 08:21:18;;;;;;;16.17;6.70;;;;;;;30.50;36.10;99403.13;5021762;28;20040;-72
2021/06/16 08:23:45;;;;;;;23.08;8.15;;;;;;;30.66;35.04;99406.41;5023901;28;20374;-70
2021/06/16 08:26:12;;;;;;;14.35;6.28;;;;;;;30.66;34.74;99404.53;5023441;28;20029;-70
2021/06/16 08:28:38;;;;;;;10.15;6.50;;;;;;;30.62;35.46;99408.75;5023682;28;20124;-71
2021/06/16 08:31:04;;;;;;;12.25;5.68;;;;;;;30.72;35.43;99400.97;5023979;28;20047;-70
2021/06/16 08:33:29;;;;;;;10.18;5.97;;;;;;;30.77;35.45;99403.84;5021514;28;20042;-71
2021/06/16 08:35:55;;;;;;;13.20;6.45;;;;;;;30.57;35.93;99398.50;5024863;28;20682;-70
2021/06/16 08:38:20;;;;;;;8.40;6.00;;;;;;;30.48;36.01;99402.50;5023362;28;20037;-71
2021/06/16 08:40:46;;;;;;;12.45;5.93;;;;;;;30.54;35.86;99398.09;5019605;28;20033;-71
2021/06/16 08:43:15;;;;;;;15.48;5.45;;;;;;;30.45;35.92;99405.66;5020662;28;20091;-72
2021/06/16 08:45:44;;;;;;;8.95;5.70;;;;;;;30.35;36.05;99399.84;5023281;28;20037;-69
2021/06/16 08:48:10;;;;;;;11.52;6.18;;;;;;;30.11;36.75;99393.16;5016981;28;20044;-71
2021/06/16 08:50:37;;;;;;;18.50;6.18;;;;;;;30.07;36.84;99383.75;5006592;28;20569;-70
2021/06/16 08:53:03;;;;;;;12.13;6.05;;;;;;;30.06;37.10;99390.25;5008135;28;20041;-72
2021/06/16 08:55:29;;;;;;;13.35;5.90;;;;;;;30.21;36.16;99390.00;5006042;28;20550;-70
2021/06/16 08:57:55;;;;;;;17.42;6.28;;;;;;;30.34;36.46;99388.09;5008334;28;20121;-70
2021/06/16 09:00:22;;;;;;;16.52;6.40;;;;;;;30.47;36.02;99387.25;5003678;28;20041;-68
2021/06/16 09:02:49;;;;;;;27.85;7.90;;;;;;;30.39;36.32;99390.19;5011790;28;20041;-70
2021/06/16 09:05:14;;;;;;;12.27;5.43;;;;;;;30.80;35.83;99384.38;5041356;28;20120;-71
2021/06/16 09:07:42;;;;;;;14.90;6.68;;;;;;;31.41;34.84;99385.72;5046764;28;20120;-69
2021/06/16 09:10:10;;;;;;;8.20;6.43;;;;;;;31.64;33.92;99385.13;5017748;28;20033;-70
2021/06/16 09:12:39;;;;;;;11.75;6.18;;;;;;;31.31;34.57;99392.69;5005596;28;20037;-70
2021/06/16 09:15:11;;;;;;;10.65;6.32;;;;;;;31.35;34.34;99383.00;5013186;28;20148;-70
2021/06/16 09:17:36;;;;;;;8.73;5.35;;;;;;;31.63;33.94;99382.63;5027614;28;20610;-72
2021/06/16 09:20:02;;;;;;;7.70;5.75;;;;;;;31.83;33.71;99383.28;5026896;28;20092;-71
2021/06/16 09:22:38;;;;;;;17.55;7.03;;;;;;;31.69;34.11;99386.34;5009409;28;20033;-69
2021/06/16 09:25:09;;;;;;;10.20;6.35;;;;;;;31.59;34.20;99384.94;5026810;28;20518;-69
2021/06/16 09:27:51;;;;;;;8.68;5.95;;;;;;;32.30;33.36;99380.94;5027404;28;20036;-71
2021/06/16 09:30:19;;;;;;;15.27;7.88;;;;;;;32.82;32.45;99379.72;5026678;28;20037;-70
2021/06/16 09:32:51;;;;;;;15.02;7.15;;;;;;;33.00;31.68;99382.38;5027070;28;20041;-70
2021/06/16 09:35:20;;;;;;;7.28;6.10;;;;;;;33.35;31.65;99376.22;5026936;28;20041;-71
2021/06/16 09:37:45;;;;;;;7.20;5.90;;;;;;;33.82;30.67;99375.47;5022198;28;20856;-71
2021/06/16 09:40:11;;;;;;;17.95;6.82;;;;;;;34.62;29.54;99372.91;5024664;28;20076;-71
2021/06/16 09:42:37;;;;;;;13.18;7.20;;;;;;;34.95;28.79;99382.34;5026604;28;20048;-70
2021/06/16 09:45:03;;;;;;;7.77;5.60;;;;;;;35.14;28.64;99371.19;5011256;28;20033;-70
2021/06/16 09:47:29;;;;;;;12.82;7.57;;;;;;;35.22;28.34;99371.63;5006349;28;20794;-71
2021/06/16 09:50:00;;;;;;;9.73;6.95;;;;;;;35.69;28.38;99362.28;5026801;28;20030;-70
2021/06/16 09:52:38;;;;;;;12.43;6.30;;;;;;;36.08;27.60;99365.00;5028143;28;20108;-71
2021/06/16 09:55:13;;;;;;;20.20;7.38;;;;;;;36.41;27.03;99355.06;5027187;28;20144;-70
2021/06/16 09:58:05;;;;;;;14.00;7.30;;;;;;;36.89;26.35;99356.16;5027693;28;20040;-71
2021/06/16 10:00:31;;;;;;;28.13;9.30;;;;;;;36.85;26.12;99346.81;5027932;28;20045;-71
2021/06/16 10:03:21;;;;;;;11.23;7.15;;;;;;;36.88;26.07;99346.28;5029875;28;20514;-70
2021/06/16 10:06:13;;;;;;;17.02;6.78;;;;;;;37.03;26.32;99342.84;5028264;28;20378;-70
2021/06/16 10:08:44;;;;;;;10.60;6.95;;;;;;;37.10;25.58;99340.75;5027695;28;20037;-71
2021/06/16 10:11:15;;;;;;;9.32;6.38;;;;;;;36.84;25.74;99339.63;5026389;28;20033;-71
2021/06/16 10:13:42;;;;;;;8.25;6.55;;;;;;;36.65;26.62;99341.91;5024791;28;20053;-70
2021/06/16 10:16:08;;;;;;;13.80;6.78;;;;;;;36.89;26.54;99339.69;5026119;28;20055;-70
2021/06/16 10:18:38;;;;;;;14.38;6.57;;;;;;;36.92;26.02;99333.66;5025618;28;20041;-69
2021/06/16 10:21:04;;;;;;;13.02;6.80;;;;;;;36.66;26.50;99338.09;5026419;28;20033;-72
2021/06/16 10:23:29;;;;;;;8.25;5.57;;;;;;;36.63;26.67;99333.94;5026823;28;20040;-70
2021/06/16 10:26:07;;;;;;;10.83;5.87;;;;;;;36.08;27.32;99334.81;5026546;28;20052;-70
2021/06/16 10:28:39;;;;;;;13.98;7.22;;;;;;;36.13;27.54;99336.84;5023785;28;20312;-71
2021/06/16 10:31:06;;;;;;;12.73;6.72;;;;;;;36.54;27.10;99329.94;5026058;28;20682;-70
2021/06/16 10:33:41;;;;;;;11.93;6.60;;;;;;;36.79;26.47;99334.09;5024172;28;20061;-68
2021/06/16 10:36:14;;;;;;;14.65;6.30;;;;;;;37.00;25.84;99333.22;5022633;28;20099;-70
2021/06/16 10:38:56;;;;;;;7.03;5.53;;;;;;;37.38;25.63;99331.34;5021054;28;20063;-69
2021/06/16 10:41:47;;;;;;;9.65;5.78;;;;;;;37.25;25.99;99324.38;5025597;28;20351;-71
2021/06/16 10:44:28;;;;;;;8.23;6.22;;;;;;;37.24;26.06;99328.25;5025271;28;20045;-71
2021/06/16 10:47:02;;;;;;;14.52;9.13;;;;;;;36.60;26.78;99328.97;5029829;28;20045;-70
2021/06/16 10:49:43;;;;;;;10.50;6.90;;;;;;;36.11;27.56;99324.22;5025452;28;20174;-71
2021/06/16 10:52:16;;;;;;;7.55;6.75;;;;;;;35.35;28.32;99326.59;5030767;28;20056;-71
2021/06/16 10:55:02;;;;;;;14.25;7.18;;;;;;;34.57;29.57;99334.44;5028053;28;20068;-69
2021/06/16 10:57:29;;;;;;;14.07;6.80;;;;;;;34.92;29.81;99327.19;5024529;28;20033;-69
2021/06/16 10:59:54;;;;;;;8.13;6.10;;;;;;;34.30;30.27;99328.69;5028852;28;20033;-69
2021/06/16 11:02:32;;;;;;;9.07;6.17;;;;;;;33.96;30.58;99333.13;5030097;28;20037;-69
2021/06/16 11:05:16;;;;;;;15.13;6.28;;;;;;;33.36;31.72;99323.25;5030570;28;20477;-69
2021/06/16 11:07:42;;;;;;;14.20;7.18;;;;;;;32.91;32.10;99329.19;5030543;28;20033;-70
2021/06/16 11:10:07;;;;;;;10.73;6.93;;;;;;;32.35;33.23;99314.78;5030421;28;20409;-69
2021/06/16 11:12:35;;;;;;;10.63;6.65;;;;;;;32.53;33.28;99318.56;5028193;28;20099;-71
2021/06/16 11:15:03;;;;;;;17.67;6.65;;;;;;;32.46;33.53;99308.53;5010477;28;20524;-68
2021/06/16 11:17:29;;;;;;;11.80;6.38;;;;;;;32.57;33.76;99297.94;5020296;28;20482;-70
2021/06/16 11:19:56;;;;;;;16.33;6.53;;;;;;;32.15;33.42;99303.28;5021774;28;20116;-69
2021/06/16 11:22:24;;;;;;;11.70;7.40;;;;;;;31.79;34.96;99302.16;5005162;28;20029;-70
2021/06/16 11:25:08;;;;;;;8.43;6.47;;;;;;;31.77;34.43;99301.56;5015141;28;20045;-70
2021/06/16 11:27:57;;;;;;;12.68;5.80;;;;;;;32.09;34.23;99294.09;5023815;28;20756;-69
2021/06/16 11:30:45;;;;;;;11.98;7.28;;;;;;;31.97;35.10;99296.78;5024722;28;20034;-72